createdAt,value
2023-06-24T00:02:02.841Z,6.80
2023-06-24T00:04:29.574Z,7.05
2023-06-24T00:06:57.723Z,6.75
2023-06-24T00:09:26.984Z,7.70
2023-06-24T00:11:53.438Z,6.87
2023-06-24T00:14:22.280Z,7.50
2023-06-24T00:16:52.191Z,7.75
2023-06-24T00:19:24.059Z,6.72
2023-06-24T00:21:54.538Z,8.25
2023-06-24T00:24:27.014Z,8.30
2023-06-24T00:26:54.373Z,8.32
2023-06-24T00:29:21.089Z,8.48
2023-06-24T00:31:47.734Z,7.00
2023-06-24T00:34:14.779Z,7.32
2023-06-24T00:36:41.522Z,8.82
2023-06-24T00:39:08.081Z,8.60
2023-06-24T00:41:35.538Z,9.20
2023-06-24T00:44:02.709Z,8.50
2023-06-24T00:46:29.759Z,8.50
2023-06-24T00:48:57.586Z,8.00
2023-06-24T00:51:31.475Z,8.23
2023-06-24T00:53:59.141Z,7.63
2023-06-24T00:56:34.859Z,7.97
2023-06-24T00:59:05.226Z,8.52
2023-06-24T01:01:36.362Z,8.47
2023-06-24T01:04:04.025Z,8.20
2023-06-24T01:06:31.122Z,7.93
2023-06-24T01:09:01.377Z,8.23
2023-06-24T01:11:28.701Z,9.43
2023-06-24T01:13:55.297Z,8.70
2023-06-24T01:17:00.328Z,8.10
2023-06-24T01:19:46.745Z,8.87
2023-06-24T01:22:22.329Z,9.95
2023-06-24T01:25:05.411Z,8.73
2023-06-24T01:28:01.535Z,9.93
2023-06-24T01:30:43.416Z,9.68
2023-06-24T01:33:19.818Z,10.30
2023-06-24T01:35:48.764Z,9.05
2023-06-24T01:38:40.530Z,9.40
2023-06-24T01:41:07.537Z,9.57
2023-06-24T01:43:37.053Z,8.70
2023-06-24T01:46:13.256Z,9.23
2023-06-24T01:48:44.633Z,8.50
2023-06-24T01:51:14.276Z,10.15
2023-06-24T01:53:49.449Z,10.38
2023-06-24T01:56:17.209Z,9.48
2023-06-24T01:58:45.910Z,9.50
2023-06-24T02:01:14.408Z,10.50
2023-06-24T02:03:43.101Z,10.05
2023-06-24T02:06:10.743Z,8.55
2023-06-24T02:08:41.000Z,9.10
2023-06-24T02:11:10.323Z,9.95
2023-06-24T02:13:38.097Z,9.38
2023-06-24T02:16:07.670Z,9.30
2023-06-24T02:18:36.744Z,7.95
2023-06-24T02:21:05.455Z,7.78
2023-06-24T02:23:32.924Z,8.60
2023-06-24T02:26:00.884Z,7.72
2023-06-24T02:28:27.998Z,8.57
2023-06-24T02:30:55.388Z,8.48
2023-06-24T02:33:22.008Z,8.63
2023-06-24T02:35:48.813Z,8.25
2023-06-24T02:38:15.394Z,7.70
2023-06-24T02:40:45.398Z,9.40
2023-06-24T02:43:12.617Z,9.43
2023-06-24T02:45:40.228Z,9.37
2023-06-24T02:48:09.612Z,8.55
2023-06-24T02:50:38.377Z,8.50
2023-06-24T02:53:05.941Z,9.57
2023-06-24T02:55:34.634Z,9.52
2023-06-24T02:58:03.297Z,9.10
2023-06-24T03:00:30.765Z,8.83
2023-06-24T03:02:57.427Z,11.17
2023-06-24T03:05:26.583Z,9.13
2023-06-24T03:07:53.456Z,9.50
2023-06-24T03:10:20.086Z,9.65
2023-06-24T03:12:48.375Z,10.38
2023-06-24T03:15:14.815Z,10.43
2023-06-24T03:17:41.385Z,11.65
2023-06-24T03:20:09.694Z,10.20
2023-06-24T03:22:37.403Z,10.35
2023-06-24T03:25:04.324Z,10.75
2023-06-24T03:27:32.396Z,10.98
2023-06-24T03:29:58.920Z,10.90
2023-06-24T03:32:25.401Z,11.37
2023-06-24T03:34:51.940Z,10.53
2023-06-24T03:37:18.543Z,10.45
2023-06-24T03:39:45.004Z,10.82
2023-06-24T03:42:11.492Z,9.57
2023-06-24T03:44:37.948Z,10.70
2023-06-24T03:47:04.640Z,10.82
2023-06-24T03:49:31.085Z,9.40
2023-06-24T03:51:57.548Z,9.50
2023-06-24T03:54:24.033Z,10.75
2023-06-24T03:57:18.619Z,9.88
2023-06-24T03:59:45.091Z,9.35
2023-06-24T04:02:11.656Z,9.65
2023-06-24T04:04:38.375Z,9.55
2023-06-24T04:07:06.674Z,11.13
2023-06-24T04:09:36.660Z,10.55
2023-06-24T04:12:03.437Z,9.30
2023-06-24T04:14:29.908Z,9.82
2023-06-24T04:16:56.352Z,10.43
2023-06-24T04:19:22.870Z,10.20
2023-06-24T04:21:49.353Z,10.17
2023-06-24T04:24:15.806Z,10.37
2023-06-24T04:26:42.266Z,10.10
2023-06-24T04:29:08.737Z,11.00
2023-06-24T04:31:35.332Z,11.03
2023-06-24T04:34:01.839Z,11.05
2023-06-24T04:36:28.289Z,11.20
2023-06-24T04:38:55.000Z,10.52
2023-06-24T04:41:21.450Z,11.82
2023-06-24T04:43:47.946Z,10.00
2023-06-24T04:46:14.461Z,11.57
2023-06-24T04:48:40.921Z,10.38
2023-06-24T04:51:07.460Z,9.98
2023-06-24T04:53:34.844Z,11.75
2023-06-24T04:56:01.618Z,10.18
2023-06-24T04:58:28.079Z,11.18
2023-06-24T05:00:55.007Z,9.43
2023-06-24T05:03:21.540Z,12.57
2023-06-24T05:05:48.066Z,11.68
2023-06-24T05:08:14.571Z,11.68
2023-06-24T05:10:41.028Z,11.32
2023-06-24T05:13:07.542Z,10.82
2023-06-24T05:15:34.157Z,11.52
2023-06-24T05:18:00.983Z,12.63
2023-06-24T05:20:27.548Z,10.60
2023-06-24T05:22:54.159Z,12.13
2023-06-24T05:25:20.616Z,10.93
2023-06-24T05:27:47.166Z,12.05
2023-06-24T05:30:15.249Z,12.15
2023-06-24T05:32:42.210Z,11.32
2023-06-24T05:35:08.891Z,11.77
2023-06-24T05:37:35.944Z,13.77
2023-06-24T05:40:03.616Z,11.55
2023-06-24T05:42:30.149Z,11.35
2023-06-24T05:44:56.601Z,11.45
2023-06-24T05:47:23.204Z,11.65
2023-06-24T05:49:49.720Z,12.52
2023-06-24T05:52:16.198Z,11.70
2023-06-24T05:54:42.658Z,11.43
2023-06-24T05:57:10.211Z,13.13
2023-06-24T05:59:36.734Z,12.52
2023-06-24T06:02:03.321Z,12.38
2023-06-24T06:04:30.101Z,10.40
2023-06-24T06:06:56.690Z,11.23
2023-06-24T06:09:23.375Z,11.05
2023-06-24T06:11:49.829Z,11.25
2023-06-24T06:14:16.422Z,9.60
2023-06-24T06:16:42.882Z,13.32
2023-06-24T06:19:09.349Z,12.00
2023-06-24T06:21:38.324Z,11.80
2023-06-24T06:32:05.499Z,11.15
2023-06-24T06:34:32.088Z,10.20
2023-06-24T06:36:58.581Z,12.33
2023-06-24T06:39:25.089Z,11.83
2023-06-24T06:41:51.690Z,9.70
2023-06-24T06:49:23.457Z,9.77
2023-06-24T06:51:50.036Z,11.52
2023-06-24T06:54:16.593Z,10.77
2023-06-24T06:56:44.388Z,10.50
2023-06-24T06:59:12.816Z,10.07
2023-06-24T07:01:39.417Z,12.10
2023-06-24T07:04:05.939Z,11.00
2023-06-24T07:06:33.743Z,10.45
2023-06-24T07:09:50.230Z,10.03
2023-06-24T07:15:45.572Z,9.90
2023-06-24T07:18:12.080Z,9.05
2023-06-24T07:28:37.778Z,9.55
2023-06-24T07:47:07.460Z,8.68
2023-06-24T07:49:34.126Z,8.55
2023-06-24T07:52:00.672Z,10.07
2023-06-24T07:54:27.143Z,8.75
2023-06-24T07:56:53.618Z,9.02
2023-06-24T07:59:20.282Z,9.05
2023-06-24T08:01:46.901Z,8.20
2023-06-24T08:04:13.487Z,8.63
2023-06-24T08:06:40.120Z,6.80
2023-06-24T08:09:06.620Z,9.55
2023-06-24T08:11:33.188Z,8.77
2023-06-24T08:13:59.675Z,9.38
2023-06-24T08:16:26.415Z,6.72
2023-06-24T08:18:52.890Z,9.18
2023-06-24T08:21:19.351Z,8.02
2023-06-24T08:23:46.928Z,8.48
2023-06-24T08:26:17.591Z,8.48
2023-06-24T08:28:44.704Z,9.02
2023-06-24T08:31:11.270Z,9.65
2023-06-24T08:33:37.735Z,8.25
2023-06-24T08:36:04.431Z,10.32
2023-06-24T08:38:30.956Z,9.02
2023-06-24T08:40:57.478Z,8.55
2023-06-24T08:43:24.004Z,7.63
2023-06-24T08:45:50.655Z,7.75
2023-06-24T08:48:19.496Z,8.68
2023-06-24T09:02:57.482Z,9.43
2023-06-24T09:21:17.722Z,8.98
2023-06-24T09:27:21.803Z,10.25
2023-06-24T10:39:19.295Z,7.22
2023-06-24T10:42:08.518Z,6.53
2023-06-24T10:45:35.794Z,7.65
2023-06-24T10:51:49.825Z,8.63
2023-06-24T10:58:58.020Z,8.23
2023-06-24T11:11:07.640Z,6.40
2023-06-24T11:13:34.833Z,7.30
2023-06-24T11:16:02.158Z,6.18
2023-06-24T11:18:38.811Z,5.97
2023-06-24T11:21:07.401Z,5.85
2023-06-24T11:23:33.943Z,6.05
2023-06-24T11:26:03.965Z,6.88
2023-06-24T11:28:32.688Z,7.72
2023-06-24T11:31:07.522Z,6.47
2023-06-24T11:33:34.094Z,7.88
2023-06-24T11:36:01.039Z,8.55
2023-06-24T11:38:33.316Z,7.22
2023-06-24T11:41:00.022Z,6.15
2023-06-24T11:43:27.211Z,5.10
2023-06-24T11:45:53.722Z,5.75
2023-06-24T11:48:21.441Z,4.77
2023-06-24T11:50:55.744Z,6.55
2023-06-24T11:53:41.313Z,4.68
2023-06-24T11:56:07.765Z,4.20
2023-06-24T11:58:36.770Z,4.75
2023-06-24T12:01:03.946Z,4.53
2023-06-24T12:03:33.530Z,4.28
2023-06-24T12:06:00.868Z,4.50
2023-06-24T12:08:29.164Z,4.10
2023-06-24T12:11:00.056Z,4.40
2023-06-24T12:13:26.542Z,5.10
2023-06-24T12:15:53.048Z,4.50
2023-06-24T12:18:19.517Z,7.25
2023-06-24T12:20:46.012Z,4.45
2023-06-24T12:23:12.527Z,6.30
2023-06-24T12:25:39.060Z,4.60
2023-06-24T12:28:05.605Z,4.20
2023-06-24T12:30:32.116Z,4.97
2023-06-24T12:32:58.786Z,3.42
2023-06-24T12:35:28.616Z,4.07
2023-06-24T12:37:55.704Z,4.10
2023-06-24T12:40:22.232Z,4.30
2023-06-24T12:42:48.749Z,4.53
2023-06-24T12:45:15.282Z,4.35
2023-06-24T12:47:41.921Z,4.13
2023-06-24T12:50:10.000Z,4.13
2023-06-24T12:52:38.339Z,3.65
2023-06-24T12:55:06.367Z,4.28
2023-06-24T12:57:32.820Z,4.45
2023-06-24T12:59:59.355Z,3.23
2023-06-24T13:02:25.858Z,3.38
2023-06-24T13:04:52.730Z,4.40
2023-06-24T13:07:19.203Z,4.53
2023-06-24T13:09:45.769Z,4.55
2023-06-24T13:12:12.261Z,4.30
2023-06-24T13:14:38.740Z,2.63
2023-06-24T13:17:05.491Z,4.57
2023-06-24T13:19:33.525Z,3.35
2023-06-24T13:22:00.403Z,3.58
2023-06-24T13:24:26.925Z,3.38
2023-06-24T13:26:53.370Z,3.95
2023-06-24T13:29:21.507Z,4.13
2023-06-24T13:31:48.163Z,4.05
2023-06-24T13:34:14.642Z,4.88
2023-06-24T13:36:41.821Z,3.42
2023-06-24T13:39:10.102Z,3.87
2023-06-24T13:41:36.681Z,2.95
